Detall de PIREP

Printer-friendly versionPDF version

[2012/08/05 15:42:00]
Flight IATA:CT3125
Pilot Number:026
Company ICAO:CAT
Aircraft Type:DC85/A
PAX:0
Aircraft Registration:CARGO
Departing Airport: LEVC
Destination Airport: LFMP
Alternate Airport:LFBO
Online: VATSIM
Route:SOPET B28 BCN R870 DALIN A67 BGR A27 KANIG
Flight Level:F180
No Slew and time accel
No pause
Crash detect
Detect pilot in Cockpit between each 30 and 45 minutes
15:42 Zero fuel Weight: 187230 Lbs, Fuel Weight: 24016 Lbs
15:42 VATSIM:LEVC 051530Z 12011KT 9999 FEW025 30/20 Q1007 NOSIG
15:42 VATSIM:LFMP 051530Z 13012KT 9999 FEW020 SCT050 BKN260 30/16 Q1006 NOSIG
15:43 VOICE CATALONIAN / IATA CT3125 INTERHUB ROUTE
15:56 Parking Brakes off
16:06 Take-off
16:06 Take off Weight: 210140 Lbs
16:06 Wind: 123º @ 011 Knots Heading: 116º
16:06 POS N39º 29´ 17´´ W000º 28´ 43´´
16:06 Gear Up: 179 Knots
16:06 Flaps:2 at 180 Knots
16:07 Flaps:1 at 180 Knots
16:08 Flaps:0 at 208 Knots
16:14 TOC
16:14 Fuel Weight: 20107 Lb
16:21 Wind:162º@014 Knots Heading: 055º Ground Speed: 432 Knots Altitude 17857 ft
16:36 Wind:133º@028 Knots Heading: 053º Ground Speed: 432 Knots Altitude 17844 ft
16:41 TOD
16:41 Fuel Weight: 14263 Lb
16:43 Gear Down: 339 Knots
16:43 Gear Up: 319 Knots
16:44 Gear Down: 340 Knots
16:45 Gear Up: 251 Knots
16:45 Gear Down: 292 Knots
16:48 Gear Up: 244 Knots
16:49 Gear Down: 361 Knots
16:49 Gear Up: 267 Knots
16:51 Wind:019º@026 Knots Heading: 350º Ground Speed: 216 Knots Altitude 5118 ft
16:59 Flaps:1 at 189 Knots
17:01 Gear Down: 175 Knots
17:03 Flaps:2 at 174 Knots
17:04 Flaps:1 at 169 Knots
17:04 Gear Up: 171 Knots
17:06 Wind:017º@013 Knots Heading: 017º Ground Speed: 177 Knots Altitude 1791 ft
17:08 Gear Down: 179 Knots
17:10 Flaps:2 at 150 Knots
17:11 Flaps:3 at 148 Knots
17:11 Flaps:4at 156 Knots
17:12 Flaps:5 at 154 Knots
17:12 TouchDown:Rate -442 ft/min Speed: 126 Knots
17:13 VATSIM:LFMP 051700Z 03012KT 9999 SCT033 BKN260 27/19 Q1007 NOSIG
17:13 Land
17:13 Wind:053º@013 Knots
17:13 Heading: 174º
17:13 Flight Duration: 01:07
17:13 Landing Weight: 196803 Lbs
17:13 POS N42º 44´ 04´´ E002º 52´ 40´´
17:17 Parking brakes on
17:17 Block to Block Duration: 01:21
17:17 Final Fuel: 9155 Lbls
17:17 Spent Fuel: 14861 Lbls
17:17 Flight Length: 257 NM
17:17 TOD Land Length: 82 NM

Exportar CSV

Powered by Drupal - Modified by Danger4k